Time;durP1;ratioP1;P1;durP2;ratioP2;P2;SDS_P1;SDS_P2;PMS_P1;PMS_P2;Temp;Humidity;BMP_temperature;BMP_pressure;BME280_temperature;BME280_humidity;BME280_pressure;Samples;Min_cycle;Max_cycle;Signal;HPM_P1;HPM_P2
2021/10/21 00:01:36;;;;;;;35.03;24.35;;;282.00;2227.20;;;;;;5094738;28;20040;-87
2021/10/21 00:04:03;;;;;;;35.15;25.88;;;281.90;2227.20;;;;;;5094347;28;20047;-86
2021/10/21 00:06:29;;;;;;;37.58;25.13;;;281.80;2252.80;;;;;;5093696;28;20041;-87
2021/10/21 00:08:55;;;;;;;31.58;24.60;;;281.80;2252.80;;;;;;5094593;28;20032;-86
2021/10/21 00:11:21;;;;;;;38.53;25.95;;;281.80;2252.80;;;;;;5095435;28;20358;-87
2021/10/21 00:13:47;;;;;;;35.75;24.55;;;281.70;2278.40;;;;;;5094027;28;20084;-86
2021/10/21 00:16:13;;;;;;;37.13;24.95;;;281.80;2252.80;;;;;;5094159;28;20043;-86
2021/10/21 00:18:39;;;;;;;35.83;26.45;;;281.60;2278.40;;;;;;5093964;28;20020;-86
2021/10/21 00:21:05;;;;;;;35.75;26.95;;;281.60;2278.40;;;;;;5093635;28;20055;-86
2021/10/21 00:23:31;;;;;;;33.05;24.88;;;281.60;2278.40;;;;;;5095056;28;20032;-86
2021/10/21 00:25:57;;;;;;;35.75;24.38;;;281.60;2278.40;;;;;;5095445;28;20026;-86
2021/10/21 00:28:22;;;;;;;35.22;24.15;;;281.70;2278.40;;;;;;5094673;28;20032;-86
2021/10/21 00:30:48;;;;;;;42.33;25.35;;;281.70;2278.40;;;;;;5095034;28;20087;-86
2021/10/21 00:33:14;;;;;;;32.85;24.95;;;281.70;2278.40;;;;;;5093373;28;20024;-86
2021/10/21 00:35:40;;;;;;;33.00;22.38;;;281.60;2278.40;;;;;;5093692;28;20039;-86
2021/10/21 00:38:07;;;;;;;33.72;23.52;;;281.60;2278.40;;;;;;5093779;28;20065;-86
2021/10/21 00:40:33;;;;;;;31.95;23.67;;;281.70;2278.40;;;;;;5094745;28;20020;-86
2021/10/21 00:42:59;;;;;;;34.55;25.65;;;281.60;2278.40;;;;;;5094733;28;20017;-85
2021/10/21 00:45:25;;;;;;;33.55;23.35;;;281.60;2278.40;;;;;;5094562;28;20020;-87
2021/10/21 00:47:51;;;;;;;36.35;24.92;;;281.70;2252.80;;;;;;5093800;28;20027;-86
2021/10/21 00:50:17;;;;;;;30.77;23.85;;;281.70;2278.40;;;;;;5094785;28;20077;-86
2021/10/21 00:52:43;;;;;;;32.17;22.77;;;281.70;2252.80;;;;;;5094682;28;20032;-86
2021/10/21 00:55:09;;;;;;;34.10;22.80;;;281.70;2278.40;;;;;;5093348;28;20119;-87
2021/10/21 00:57:37;;;;;;;34.67;23.73;;;281.60;2278.40;;;;;;5093446;28;20069;-87
2021/10/21 01:00:04;;;;;;;31.73;23.50;;;281.60;2278.40;;;;;;5093443;28;20476;-87
2021/10/21 01:02:30;;;;;;;32.60;24.63;;;256.90;2252.80;;;;;;5093351;28;20021;-87
2021/10/21 01:04:55;;;;;;;33.20;24.23;;;256.90;2252.80;;;;;;5093081;28;20051;-86
2021/10/21 01:07:21;;;;;;;30.38;23.85;;;256.90;2252.80;;;;;;5093539;28;20114;-87
2021/10/21 01:09:49;;;;;;;33.03;23.05;;;256.90;2252.80;;;;;;5093016;28;20024;-86
2021/10/21 01:12:15;;;;;;;35.53;24.30;;;281.60;2278.40;;;;;;5094311;28;20020;-86
2021/10/21 01:14:42;;;;;;;32.88;23.27;;;281.60;2278.40;;;;;;5092900;28;20066;-85
2021/10/21 01:17:08;;;;;;;34.53;23.38;;;281.60;2278.40;;;;;;5094338;28;20012;-86
2021/10/21 01:19:34;;;;;;;32.50;22.90;;;281.60;2278.40;;;;;;5093996;28;20484;-87
2021/10/21 01:22:01;;;;;;;34.60;23.20;;;281.60;2278.40;;;;;;5092703;28;20118;-86
2021/10/21 01:24:27;;;;;;;30.63;22.05;;;281.70;2278.40;;;;;;5093047;28;20020;-86
2021/10/21 01:26:54;;;;;;;36.42;23.65;;;281.70;2278.40;;;;;;5093418;28;20123;-86
2021/10/21 01:29:22;;;;;;;36.22;24.10;;;281.60;2278.40;;;;;;5093295;28;20027;-85
2021/10/21 01:31:50;;;;;;;32.38;22.67;;;281.60;2278.40;;;;;;5093362;28;20028;-88
2021/10/21 01:34:16;;;;;;;30.98;23.05;;;281.60;2278.40;;;;;;5092935;28;20028;-89
2021/10/21 01:36:47;;;;;;;30.63;22.17;;;281.70;2278.40;;;;;;5093103;28;20028;-87
2021/10/21 01:39:13;;;;;;;32.92;21.33;;;281.60;2278.40;;;;;;5094134;28;20035;-86
2021/10/21 01:41:39;;;;;;;31.40;23.13;;;281.60;2278.40;;;;;;5093103;28;20028;-85
2021/10/21 01:44:06;;;;;;;31.58;22.92;;;281.60;2278.40;;;;;;5092969;28;20032;-86
2021/10/21 01:46:32;;;;;;;32.53;23.13;;;256.90;2252.80;;;;;;5093095;28;20032;-85
2021/10/21 01:48:58;;;;;;;30.90;23.35;;;281.60;2278.40;;;;;;5093692;28;20025;-88
2021/10/21 01:51:24;;;;;;;30.27;22.48;;;281.60;2278.40;;;;;;5092891;28;20501;-86
2021/10/21 01:53:50;;;;;;;34.72;23.48;;;281.60;2278.40;;;;;;5093013;28;20037;-86
2021/10/21 01:56:16;;;;;;;30.33;23.02;;;281.60;2278.40;;;;;;5092462;28;20134;-87
2021/10/21 01:58:42;;;;;;;32.30;23.52;;;281.70;2278.40;;;;;;5092767;28;20388;-87
2021/10/21 02:01:08;;;;;;;35.92;23.42;;;281.70;2278.40;;;;;;5093902;28;20031;-86
2021/10/21 02:03:34;;;;;;;31.88;22.52;;;281.80;2278.40;;;;;;5092975;28;20028;-86
2021/10/21 02:06:00;;;;;;;32.53;23.65;;;281.70;2278.40;;;;;;5094084;28;20043;-86
2021/10/21 02:08:26;;;;;;;31.67;23.10;;;281.60;2278.40;;;;;;5093857;28;20036;-87
2021/10/21 02:10:52;;;;;;;31.70;23.17;;;281.60;2278.40;;;;;;5092477;28;20380;-86
2021/10/21 02:13:18;;;;;;;34.25;22.92;;;281.60;2278.40;;;;;;5092754;28;20059;-86
2021/10/21 02:15:43;;;;;;;30.58;22.48;;;281.60;2278.40;;;;;;5092703;28;20077;-87
2021/10/21 02:18:09;;;;;;;28.23;20.92;;;281.60;2278.40;;;;;;5092603;28;20031;-87
2021/10/21 02:20:35;;;;;;;30.77;22.60;;;281.60;2278.40;;;;;;5093634;28;20062;-86
2021/10/21 02:23:01;;;;;;;29.55;22.23;;;281.70;2252.80;;;;;;5095174;28;20067;-86
2021/10/21 02:25:27;;;;;;;29.63;22.92;;;281.70;2252.80;;;;;;5095949;28;20028;-85
2021/10/21 02:27:53;;;;;;;30.75;23.02;;;281.60;2278.40;;;;;;5095776;28;20022;-87
2021/10/21 02:30:20;;;;;;;31.23;22.85;;;256.90;2252.80;;;;;;5096171;28;20040;-87
2021/10/21 02:32:47;;;;;;;34.75;22.42;;;281.60;2252.80;;;;;;5096276;28;20028;-86
2021/10/21 02:35:13;;;;;;;30.35;22.40;;;281.60;2252.80;;;;;;5096037;28;20127;-90
2021/10/21 02:37:39;;;;;;;34.10;22.90;;;281.60;2278.40;;;;;;5097204;28;20141;-86
2021/10/21 02:40:09;;;;;;;31.40;23.23;;;281.60;2252.80;;;;;;5095766;28;20030;-86
2021/10/21 02:42:35;;;;;;;32.97;22.35;;;281.60;2252.80;;;;;;5097037;28;20056;-86
2021/10/21 02:45:01;;;;;;;31.83;21.80;;;281.60;2252.80;;;;;;5096168;28;20062;-86
2021/10/21 02:47:27;;;;;;;30.92;22.13;;;281.70;2252.80;;;;;;5097166;28;20480;-87
2021/10/21 02:49:52;;;;;;;31.58;22.20;;;281.70;2252.80;;;;;;5095936;28;20073;-86
2021/10/21 02:52:18;;;;;;;32.22;22.48;;;281.70;2252.80;;;;;;5096930;28;20028;-86
2021/10/21 02:54:44;;;;;;;33.83;22.58;;;281.70;2252.80;;;;;;5095666;28;20115;-86
2021/10/21 02:57:10;;;;;;;31.80;24.00;;;281.70;2252.80;;;;;;5095760;28;20115;-87
2021/10/21 02:59:36;;;;;;;29.02;22.30;;;281.70;2252.80;;;;;;5096634;28;20024;-87
2021/10/21 03:02:02;;;;;;;32.35;22.60;;;281.80;2227.20;;;;;;5096848;28;20032;-87
2021/10/21 03:04:28;;;;;;;29.48;21.83;;;281.70;2227.20;;;;;;5095670;28;20487;-88
2021/10/21 03:06:54;;;;;;;37.42;22.98;;;281.70;2227.20;;;;;;5096641;28;20028;-86
2021/10/21 03:09:20;;;;;;;31.50;22.02;;;281.80;2252.80;;;;;;5096750;28;20024;-87
2021/10/21 03:11:46;;;;;;;34.50;24.00;;;281.60;2252.80;;;;;;5096150;28;20544;-86
2021/10/21 03:14:12;;;;;;;38.70;26.10;;;281.60;2252.80;;;;;;5094946;28;20040;-85
2021/10/21 03:16:38;;;;;;;34.28;24.67;;;281.60;2252.80;;;;;;5094985;28;20191;-86
2021/10/21 03:19:05;;;;;;;36.13;24.48;;;281.60;2252.80;;;;;;5095379;28;20030;-86
2021/10/21 03:21:33;;;;;;;34.15;24.17;;;281.60;2252.80;;;;;;5095311;28;20030;-85
2021/10/21 03:23:59;;;;;;;34.08;23.17;;;281.60;2252.80;;;;;;5095251;28;20030;-85
2021/10/21 03:26:26;;;;;;;28.80;20.80;;;281.60;2252.80;;;;;;5095351;28;20115;-86
2021/10/21 03:28:52;;;;;;;28.75;22.40;;;281.60;2227.20;;;;;;5095232;28;20023;-86
2021/10/21 03:31:19;;;;;;;30.80;21.80;;;256.90;2201.60;;;;;;5095105;28;20115;-88
2021/10/21 03:33:46;;;;;;;31.98;21.52;;;281.80;2227.20;;;;;;5095009;28;20030;-87
2021/10/21 03:36:12;;;;;;;29.08;20.77;;;281.60;2227.20;;;;;;5094892;28;20071;-86
2021/10/21 03:38:38;;;;;;;29.33;20.60;;;281.60;2227.20;;;;;;5094867;28;20020;-87
2021/10/21 03:41:05;;;;;;;28.90;19.75;;;281.60;2227.20;;;;;;5094841;28;20545;-87
2021/10/21 03:43:31;;;;;;;29.83;19.85;;;281.60;2227.20;;;;;;5094900;28;20477;-87
2021/10/21 03:45:56;;;;;;;26.60;19.75;;;281.60;2227.20;;;;;;5094746;28;20031;-87
2021/10/21 03:48:22;;;;;;;28.42;20.45;;;281.70;2227.20;;;;;;5094752;28;20494;-87
2021/10/21 03:50:48;;;;;;;27.35;20.48;;;281.70;2227.20;;;;;;5094628;28;20024;-86
2021/10/21 03:53:15;;;;;;;29.55;19.73;;;281.60;2227.20;;;;;;5094216;28;20034;-88
2021/10/21 03:55:42;;;;;;;32.50;21.77;;;281.60;2252.80;;;;;;5094407;28;20085;-88
2021/10/21 03:58:09;;;;;;;33.83;23.33;;;281.70;2227.20;;;;;;5094454;28;20538;-88
2021/10/21 04:00:35;;;;;;;30.05;20.95;;;281.60;2227.20;;;;;;5094888;28;20097;-88
2021/10/21 04:03:01;;;;;;;31.10;20.70;;;281.60;2227.20;;;;;;5095582;28;20108;-86
2021/10/21 04:05:27;;;;;;;27.88;20.35;;;281.60;2201.60;;;;;;5094705;28;20031;-85
2021/10/21 04:07:53;;;;;;;26.50;20.35;;;256.90;2201.60;;;;;;5094402;28;20023;-88
2021/10/21 04:10:19;;;;;;;27.30;21.65;;;256.80;2201.60;;;;;;5094375;28;20024;-87
2021/10/21 04:12:46;;;;;;;27.88;21.35;;;256.80;2201.60;;;;;;5094215;28;20077;-87
2021/10/21 04:15:11;;;;;;;29.23;23.15;;;256.70;2201.60;;;;;;5093954;28;20052;-88
2021/10/21 04:17:38;;;;;;;30.45;22.42;;;256.60;2227.20;;;;;;5094208;28;20027;-87
2021/10/21 04:20:05;;;;;;;31.45;22.40;;;256.60;2227.20;;;;;;5095148;28;20032;-87
2021/10/21 04:22:31;;;;;;;29.60;23.65;;;256.60;2227.20;;;;;;5094403;28;20507;-85
2021/10/21 04:24:57;;;;;;;32.60;22.92;;;256.40;2227.20;;;;;;5094100;28;20516;-86
2021/10/21 04:27:23;;;;;;;32.35;24.45;;;256.40;2252.80;;;;;;5093969;28;20016;-86
2021/10/21 04:29:49;;;;;;;32.83;24.02;;;256.40;2252.80;;;;;;5093935;28;20027;-87
2021/10/21 04:32:15;;;;;;;35.38;25.38;;;256.40;2252.80;;;;;;5093998;28;20070;-87
2021/10/21 04:34:41;;;;;;;35.50;26.52;;;256.30;2252.80;;;;;;5093787;28;20020;-88
2021/10/21 04:37:07;;;;;;;34.63;25.17;;;256.30;2252.80;;;;;;5094058;28;20073;-87
2021/10/21 04:39:33;;;;;;;35.33;26.50;;;256.20;2252.80;;;;;;5093838;28;20035;-87
2021/10/21 04:41:59;;;;;;;37.97;27.13;;;256.20;2252.80;;;;;;5093588;28;20465;-89
2021/10/21 04:44:25;;;;;;;39.95;26.95;;;256.00;2252.80;;;;;;5093288;28;20031;-88
2021/10/21 04:46:51;;;;;;;44.03;29.33;;;256.00;2252.80;;;;;;5093880;28;20024;-88
2021/10/21 04:49:17;;;;;;;40.13;28.67;;;256.00;2252.80;;;;;;5093715;28;20483;-88
2021/10/21 04:51:43;;;;;;;39.67;28.55;;;231.30;2252.80;;;;;;5093797;28;20027;-88
2021/10/21 04:54:09;;;;;;;39.22;28.83;;;231.20;2252.80;;;;;;5093534;28;20073;-88
2021/10/21 04:56:35;;;;;;;39.70;29.00;;;231.20;2252.80;;;;;;5093600;28;20036;-87
2021/10/21 04:59:01;;;;;;;42.53;30.42;;;231.10;2252.80;;;;;;5093616;28;20059;-88
2021/10/21 05:01:27;;;;;;;57.38;39.08;;;231.20;2252.80;;;;;;5093623;28;20045;-89
2021/10/21 05:03:54;;;;;;;75.57;48.45;;;231.20;2252.80;;;;;;5093469;28;20135;-87
2021/10/21 05:06:20;;;;;;;64.68;40.25;;;231.20;2252.80;;;;;;5093418;28;20384;-87
2021/10/21 05:08:46;;;;;;;46.38;32.95;;;231.20;2252.80;;;;;;5094544;28;20024;-88
2021/10/21 05:11:12;;;;;;;52.17;33.15;;;231.10;2252.80;;;;;;5093097;28;20463;-87
2021/10/21 05:13:38;;;;;;;62.65;39.83;;;231.10;2252.80;;;;;;5093198;28;20073;-86
2021/10/21 05:16:04;;;;;;;72.60;47.38;;;231.10;2252.80;;;;;;5093441;28;20060;-89
2021/10/21 05:18:30;;;;;;;64.18;43.05;;;231.10;2252.80;;;;;;5093280;28;20020;-88
2021/10/21 05:20:56;;;;;;;67.45;45.15;;;231.20;2252.80;;;;;;5092937;28;20052;-86
2021/10/21 05:23:22;;;;;;;66.88;44.75;;;231.10;2252.80;;;;;;5094435;28;20020;-87
2021/10/21 05:25:48;;;;;;;73.28;48.70;;;231.20;2252.80;;;;;;5093367;28;20020;-86
2021/10/21 05:28:14;;;;;;;78.07;50.05;;;231.20;2252.80;;;;;;5094029;28;20393;-87
2021/10/21 05:30:41;;;;;;;78.40;49.05;;;231.20;2252.80;;;;;;5093083;28;20054;-88
2021/10/21 05:33:07;;;;;;;65.78;42.92;;;231.30;2252.80;;;;;;5092718;28;20110;-87
2021/10/21 05:35:33;;;;;;;63.63;45.13;;;256.00;2252.80;;;;;;5093041;28;20028;-87
2021/10/21 05:37:59;;;;;;;69.32;47.97;;;256.00;2252.80;;;;;;5093248;28;20087;-87
2021/10/21 05:40:26;;;;;;;75.03;49.65;;;256.10;2252.80;;;;;;5094239;28;20030;-86
2021/10/21 05:42:52;;;;;;;65.65;44.08;;;256.20;2252.80;;;;;;5093043;28;20028;-87
2021/10/21 05:45:18;;;;;;;62.15;39.13;;;256.20;2252.80;;;;;;5094174;28;20016;-87
2021/10/21 05:47:46;;;;;;;57.42;38.30;;;256.30;2252.80;;;;;;5092600;28;20047;-87
2021/10/21 05:50:12;;;;;;;64.22;40.92;;;256.30;2252.80;;;;;;5094146;28;20108;-87
2021/10/21 05:52:39;;;;;;;75.28;48.95;;;256.30;2252.80;;;;;;5093047;28;20035;-87
2021/10/21 05:55:06;;;;;;;71.57;43.63;;;256.30;2252.80;;;;;;5092818;28;20024;-86
2021/10/21 05:57:32;;;;;;;52.05;36.00;;;256.30;2252.80;;;;;;5094975;28;20028;-87
2021/10/21 05:59:58;;;;;;;50.55;33.35;;;256.30;2252.80;;;;;;5098094;28;20020;-87
2021/10/21 06:02:24;;;;;;;50.47;35.92;;;256.30;2252.80;;;;;;5097040;28;20024;-87
2021/10/21 06:04:50;;;;;;;50.95;35.08;;;256.30;2252.80;;;;;;5096892;28;20031;-86
2021/10/21 06:07:16;;;;;;;45.97;33.50;;;256.30;2252.80;;;;;;5096526;28;20112;-86
2021/10/21 06:09:42;;;;;;;46.78;32.03;;;256.40;2252.80;;;;;;5096601;28;20035;-87
2021/10/21 06:12:08;;;;;;;43.85;30.67;;;256.40;2252.80;;;;;;5097791;28;20020;-86
2021/10/21 06:14:35;;;;;;;48.85;32.47;;;256.10;2252.80;;;;;;5096585;28;20058;-87
2021/10/21 06:17:01;;;;;;;48.63;30.85;;;256.60;2252.80;;;;;;5096549;28;20020;-87
2021/10/21 06:19:28;;;;;;;45.67;30.70;;;256.60;2252.80;;;;;;5096403;28;20035;-86
2021/10/21 06:22:05;;;;;;;41.47;30.70;;;256.70;2252.80;;;;;;5096380;28;20085;-88
2021/10/21 06:24:31;;;;;;;44.05;31.13;;;256.70;2252.80;;;;;;5096325;28;20024;-87
2021/10/21 06:26:57;;;;;;;40.65;30.70;;;256.80;2252.80;;;;;;5095998;28;20028;-86
2021/10/21 06:29:23;;;;;;;43.53;31.65;;;256.90;2252.80;;;;;;5096207;28;20476;-86
2021/10/21 06:31:50;;;;;;;44.97;31.70;;;256.90;2252.80;;;;;;5096202;28;20024;-85
2021/10/21 06:34:16;;;;;;;42.90;29.83;;;281.60;2278.40;;;;;;5097314;28;20032;-86
2021/10/21 06:36:42;;;;;;;41.83;29.55;;;281.70;2278.40;;;;;;5096092;28;20069;-87
2021/10/21 06:39:08;;;;;;;44.78;30.33;;;281.70;2278.40;;;;;;5096168;28;20080;-85
2021/10/21 06:41:35;;;;;;;40.67;28.52;;;281.80;2278.40;;;;;;5096074;28;20539;-86
2021/10/21 06:44:01;;;;;;;42.67;29.40;;;282.00;2278.40;;;;;;5096016;28;20043;-86
2021/10/21 06:46:27;;;;;;;41.47;30.40;;;282.00;2252.80;;;;;;5095610;28;20472;-86
2021/10/21 06:48:55;;;;;;;44.83;29.20;;;282.10;2252.80;;;;;;5095703;28;20081;-86
2021/10/21 06:51:21;;;;;;;35.60;28.63;;;282.20;2252.80;;;;;;5095851;28;20118;-86
2021/10/21 06:53:47;;;;;;;43.95;30.40;;;282.40;2252.80;;;;;;5095650;28;20024;-85
2021/10/21 06:56:14;;;;;;;46.25;29.77;;;282.50;2227.20;;;;;;5095401;28;20438;-85
2021/10/21 06:58:40;;;;;;;41.88;29.75;;;307.30;2252.80;;;;;;5095314;28;20476;-84
2021/10/21 07:01:05;;;;;;;45.92;30.45;;;307.40;2227.20;;;;;;5096196;28;20028;-84
2021/10/21 07:03:31;;;;;;;39.60;27.65;;;307.50;2227.20;;;;;;5096393;28;20020;-84
2021/10/21 07:05:57;;;;;;;39.60;30.17;;;307.60;2227.20;;;;;;5095293;28;20115;-84
2021/10/21 07:08:25;;;;;;;44.85;32.35;;;307.70;2227.20;;;;;;5094696;28;20036;-84
2021/10/21 07:10:51;;;;;;;45.30;32.80;;;307.80;2201.60;;;;;;5095155;28;20026;-84
2021/10/21 07:13:17;;;;;;;44.05;31.65;;;307.90;2201.60;;;;;;5094950;28;20020;-85
2021/10/21 07:15:43;;;;;;;41.65;27.95;;;308.00;2201.60;;;;;;5095047;28;20047;-84
2021/10/21 07:18:09;;;;;;;36.72;25.65;;;308.10;2176.00;;;;;;5095081;28;20024;-84
2021/10/21 07:20:36;;;;;;;33.85;25.45;;;332.80;2176.00;;;;;;5095066;28;20034;-85
2021/10/21 07:23:02;;;;;;;39.25;26.55;;;332.80;2176.00;;;;;;5095816;28;20484;-84
2021/10/21 07:25:28;;;;;;;37.58;26.27;;;332.90;2176.00;;;;;;5094183;28;20136;-84
2021/10/21 07:27:57;;;;;;;38.35;25.15;;;333.00;2176.00;;;;;;5094573;28;20093;-83
2021/10/21 07:30:27;;;;;;;32.17;23.95;;;333.10;2176.00;;;;;;5094423;28;20154;-83
2021/10/21 07:32:54;;;;;;;32.30;22.23;;;333.30;2150.40;;;;;;5095602;28;20054;-84
2021/10/21 07:35:21;;;;;;;30.85;21.35;;;333.40;2150.40;;;;;;5094279;28;20036;-83
2021/10/21 07:37:47;;;;;;;24.75;17.67;;;333.60;2124.80;;;;;;5094259;28;20031;-84
2021/10/21 07:40:13;;;;;;;25.67;18.58;;;358.50;2048.00;;;;;;5094043;28;20032;-84
2021/10/21 07:42:40;;;;;;;25.58;18.60;;;358.80;2048.00;;;;;;5095512;28;20353;-84
2021/10/21 07:45:08;;;;;;;40.95;21.13;;;359.10;1996.80;;;;;;5094254;28;20070;-82
2021/10/21 07:47:35;;;;;;;31.88;21.38;;;384.00;1971.20;;;;;;5094276;28;20470;-83
2021/10/21 07:50:03;;;;;;;34.17;21.00;;;384.20;1971.20;;;;;;5093942;28;20028;-84
2021/10/21 07:52:29;;;;;;;29.20;19.77;;;384.50;1945.60;;;;;;5095777;28;20116;-84
2021/10/21 07:54:55;;;;;;;49.65;23.00;;;384.70;1945.60;;;;;;5094017;28;20455;-84
2021/10/21 07:57:22;;;;;;;41.65;21.42;;;384.90;1920.00;;;;;;5094066;28;20084;-85
2021/10/21 07:59:48;;;;;;;48.33;21.23;;;409.60;1945.60;;;;;;5094284;28;20020;-86
2021/10/21 08:02:16;;;;;;;41.78;20.05;;;409.60;1945.60;;;;;;5095495;28;20056;-83
2021/10/21 08:04:42;;;;;;;66.30;21.50;;;409.60;1945.60;;;;;;5094056;28;20032;-85
2021/10/21 08:07:08;;;;;;;42.20;16.48;;;384.80;1945.60;;;;;;5093651;28;20489;-83
2021/10/21 08:09:34;;;;;;;28.70;13.38;;;384.70;1920.00;;;;;;5093839;28;20115;-86
2021/10/21 08:12:04;;;;;;;106.25;19.27;;;384.70;1894.40;;;;;;5093860;28;20024;-85
2021/10/21 08:14:30;;;;;;;38.72;14.15;;;384.80;1868.80;;;;;;5093439;28;20052;-84
2021/10/21 08:16:58;;;;;;;23.83;11.95;;;384.90;1868.80;;;;;;5093584;28;20028;-82
2021/10/21 08:19:25;;;;;;;25.25;12.48;;;409.90;1817.60;;;;;;5092751;28;20024;-83
2021/10/21 08:21:51;;;;;;;23.42;13.57;;;409.60;1817.60;;;;;;5093431;28;20433;-83
2021/10/21 08:24:19;;;;;;;28.52;12.85;;;410.00;1817.60;;;;;;5094805;28;20499;-83
2021/10/21 08:26:48;;;;;;;23.00;13.32;;;410.00;1817.60;;;;;;5093398;28;20028;-83
2021/10/21 08:29:15;;;;;;;39.35;14.25;;;410.20;1792.00;;;;;;5093249;28;20118;-81
2021/10/21 08:31:41;;;;;;;27.38;15.10;;;435.80;1715.20;;;;;;5093229;28;20430;-81
2021/10/21 08:34:07;;;;;;;35.25;14.98;;;486.50;1561.60;;;;;;5094714;28;20023;-81
2021/10/21 08:36:32;;;;;;;29.75;15.13;;;512.40;1484.80;;;;;;5092696;28;20136;-80
2021/10/21 08:38:58;;;;;;;38.45;16.92;;;512.80;1408.00;;;;;;5093006;28;20531;-81
2021/10/21 08:41:27;;;;;;;31.70;16.42;;;563.70;1331.20;;;;;;5094557;28;20024;-81
2021/10/21 08:43:53;;;;;;;30.52;13.55;;;640.30;1177.60;;;;;;5092784;28;20024;-81
2021/10/21 08:46:24;;;;;;;26.20;12.35;;;692.00;972.80;;;;;;5094326;28;20016;-80
2021/10/21 08:48:54;;;;;;;27.25;12.65;;;716.90;947.20;;;;;;5092872;28;20032;-82
2021/10/21 08:51:20;;;;;;;23.50;9.70;;;691.40;947.20;;;;;;5093079;28;20085;-83
2021/10/21 08:53:46;;;;;;;19.65;9.95;;;640.60;1075.20;;;;;;5092714;28;20504;-82
2021/10/21 08:56:12;;;;;;;19.15;7.65;;;640.20;1049.60;;;;;;5092676;28;20040;-81
2021/10/21 08:58:38;;;;;;;16.42;7.65;;;717.30;947.20;;;;;;5094085;28;20012;-85
2021/10/21 09:01:11;;;;;;;19.25;6.18;;;768.20;819.20;;;;;;5094258;28;20024;-83
2021/10/21 09:03:54;;;;;;;;;;;717.60;793.60;;;;;;5093089;28;20024;-82
2021/10/21 09:09:05;;;;;;;16.65;4.90;;;640.80;947.20;;;;;;5094391;28;20023;-80
2021/10/21 09:11:31;;;;;;;8.85;5.10;;;742.60;819.20;;;;;;5092525;28;20435;-79
2021/10/21 09:14:30;;;;;;;36.95;6.25;;;793.80;742.40;;;;;;5093316;28;20036;-79
2021/10/21 09:17:04;;;;;;;19.25;5.90;;;819.90;665.60;;;;;;5015279;28;20041;-82
2021/10/21 09:19:30;;;;;;;10.73;5.15;;;819.90;691.20;;;;;;5015129;28;20056;-82
2021/10/21 09:21:57;;;;;;;11.30;5.13;;;794.10;716.80;;;;;;5031791;28;20041;-79
2021/10/21 09:24:31;;;;;;;11.48;5.03;;;768.80;716.80;;;;;;5031237;28;20029;-77
2021/10/21 09:27:17;;;;;;;8.95;6.63;;;768.90;691.20;;;;;;5014929;28;20089;-79
2021/10/21 09:29:49;;;;;;;7.43;5.00;;;768.50;716.80;;;;;;5014946;28;20025;-79
2021/10/21 09:32:21;;;;;;;20.45;10.32;;;717.50;768.00;;;;;;5034924;28;20068;-84
2021/10/21 09:34:52;;;;;;;16.42;11.82;;;;;;;;;;5019012;28;20379;-78
2021/10/21 09:37:32;;;;;;;11.75;9.18;;;615.00;921.60;;;;;;5035355;28;20124;-78
2021/10/21 09:40:10;;;;;;;16.15;5.75;;;589.60;998.40;;;;;;5019072;28;20056;-81
2021/10/21 09:42:42;;;;;;;11.65;10.30;;;564.10;998.40;;;;;;5018999;28;20083;-87
2021/10/21 09:45:18;;;;;;;13.52;9.85;;;563.50;1075.20;;;;;;5019048;28;20525;-81
2021/10/21 09:47:48;;;;;;;15.40;11.07;;;538.40;1100.80;;;;;;5018847;28;20029;-79
2021/10/21 09:50:39;;;;;;;13.10;8.02;;;538.00;1126.40;;;;;;5018779;28;20395;-83
2021/10/21 09:53:08;;;;;;;10.98;4.40;;;537.90;1152.00;;;;;;5051183;28;20390;-82
2021/10/21 09:55:37;;;;;;;9.73;7.22;;;512.90;1152.00;;;;;;5095991;28;20036;-79
2021/10/21 09:58:06;;;;;;;12.50;5.07;;;537.60;1203.20;;;;;;5097567;28;20107;-81
2021/10/21 10:00:35;;;;;;;6.25;4.80;;;537.70;1152.00;;;;;;5096076;28;20045;-82
2021/10/21 10:03:10;;;;;;;7.05;5.78;;;537.70;1152.00;;;;;;5096010;28;20427;-78
2021/10/21 10:05:40;;;;;;;9.07;5.40;;;537.70;1152.00;;;;;;5096417;28;20047;-82
2021/10/21 10:08:10;;;;;;;8.05;4.63;;;538.00;1126.40;;;;;;5095254;28;20031;-78
2021/10/21 10:10:38;;;;;;;11.77;5.35;;;537.70;1177.60;;;;;;5096245;28;20031;-84
2021/10/21 10:13:04;;;;;;;12.32;5.95;;;512.80;1177.60;;;;;;5095669;28;20020;-82
2021/10/21 10:15:30;;;;;;;10.38;6.50;;;512.60;1203.20;;;;;;5095383;28;20052;-79
2021/10/21 10:17:56;;;;;;;11.32;6.43;;;512.50;1228.80;;;;;;5095972;28;20028;-78
2021/10/21 10:20:27;;;;;;;13.27;6.03;;;512.50;1203.20;;;;;;5095718;28;20472;-80
2021/10/21 10:22:53;;;;;;;10.77;7.30;;;512.50;1203.20;;;;;;5095830;28;20028;-80
2021/10/21 10:25:21;;;;;;;8.55;6.03;;;512.30;1228.80;;;;;;5095828;28;20055;-81
2021/10/21 10:27:59;;;;;;;22.58;6.25;;;512.40;1228.80;;;;;;5095672;28;20073;-83
2021/10/21 10:30:43;;;;;;;18.25;6.00;;;512.30;1203.20;;;;;;5096900;28;20020;-80
2021/10/21 10:33:09;;;;;;;9.60;5.72;;;512.40;1254.40;;;;;;5095400;28;20093;-82
2021/10/21 10:35:38;;;;;;;10.88;6.38;;;512.70;1228.80;;;;;;5096633;28;20066;-82
2021/10/21 10:38:09;;;;;;;10.18;6.80;;;512.40;1203.20;;;;;;5095410;28;20528;-81
2021/10/21 10:40:43;;;;;;;9.25;5.65;;;512.40;1228.80;;;;;;5095757;28;20031;-83
2021/10/21 10:43:14;;;;;;;8.15;6.15;;;512.40;1203.20;;;;;;5094903;28;20473;-80
2021/10/21 10:45:43;;;;;;;9.50;6.90;;;512.40;1203.20;;;;;;5095437;28;20024;-89
2021/10/21 10:48:10;;;;;;;14.75;8.82;;;512.40;1228.80;;;;;;5095327;28;20103;-82
2021/10/21 10:50:42;;;;;;;10.48;6.70;;;512.40;1228.80;;;;;;5095236;28;20063;-81
2021/10/21 10:53:09;;;;;;;12.88;8.20;;;512.40;1228.80;;;;;;5095207;28;20181;-78
2021/10/21 10:55:47;;;;;;;14.35;8.73;;;512.30;1228.80;;;;;;5096444;28;20485;-86
2021/10/21 10:58:23;;;;;;;10.30;6.45;;;512.40;1228.80;;;;;;5095084;28;20024;-81
2021/10/21 11:00:58;;;;;;;11.13;6.68;;;512.40;1228.80;;;;;;5090398;28;20024;-80
2021/10/21 11:03:34;;;;;;;6.05;4.95;;;512.40;1228.80;;;;;;5096515;28;20557;-81
2021/10/21 11:06:17;;;;;;;8.27;4.97;;;512.40;1203.20;;;;;;5095199;28;20400;-85
2021/10/21 11:09:08;;;;;;;13.90;4.80;;;512.30;1203.20;;;;;;5095488;28;20028;-84
2021/10/21 11:11:44;;;;;;;7.50;3.85;;;512.30;1203.20;;;;;;5095420;28;20024;-84
2021/10/21 11:14:12;;;;;;;7.88;4.60;;;512.20;1203.20;;;;;;5095696;28;20036;-88
2021/10/21 11:16:41;;;;;;;8.23;3.78;;;512.30;1228.80;;;;;;5094671;28;20549;-83
2021/10/21 11:19:07;;;;;;;9.32;4.70;;;;;;;;;;5094637;28;20415;-80
2021/10/21 11:21:47;;;;;;;9.40;7.18;;;;;;;;;;5094794;28;20035;-89
2021/10/21 11:24:32;;;;;;;7.75;4.60;;;;;;;;;;5094705;28;20023;-84
2021/10/21 11:27:06;;;;;;;8.68;4.78;;;512.80;1152.00;;;;;;5095887;28;20024;-81
2021/10/21 11:29:33;;;;;;;8.95;5.47;;;;;;;;;;5094567;28;20037;-80
2021/10/21 11:32:01;;;;;;;9.93;5.22;;;;;;;;;;5095907;28;20414;-87
2021/10/21 11:34:27;;;;;;;10.52;5.10;;;;;;;;;;5094508;28;20123;-78
2021/10/21 11:36:53;;;;;;;8.68;4.82;;;;;;;;;;5095639;28;20028;-82
2021/10/21 11:39:29;;;;;;;9.02;5.15;;;;;;;;;;5095847;28;20016;-85
2021/10/21 11:41:55;;;;;;;6.55;5.00;;;;;;;;;;5095493;28;20031;-78
2021/10/21 11:44:22;;;;;;;8.13;4.72;;;512.80;1228.80;;;;;;5094188;28;20017;-85
2021/10/21 11:47:01;;;;;;;9.60;5.57;;;512.70;1228.80;;;;;;5095232;28;20020;-79
2021/10/21 11:49:31;;;;;;;12.40;6.57;;;512.60;1228.80;;;;;;5095159;28;20019;-78
2021/10/21 11:52:09;;;;;;;11.30;7.60;;;512.60;1254.40;;;;;;5093914;28;20451;-78
2021/10/21 11:54:36;;;;;;;12.85;6.70;;;;;;;;;;5092810;28;20056;-83
2021/10/21 11:57:02;;;;;;;8.63;6.53;;;;;;;;;;5093840;28;20035;-83
2021/10/21 11:59:32;;;;;;;11.88;5.93;;;;;;;;;;5095382;28;20496;-79
2021/10/21 12:02:06;;;;;;;9.00;6.10;;;;;;;;;;5093956;28;20031;-80
2021/10/21 12:04:32;;;;;;;9.60;6.32;;;;;;;;;;5093771;28;20536;-80
2021/10/21 12:06:58;;;;;;;10.75;8.30;;;537.80;1280.00;;;;;;5095148;28;20043;-77
2021/10/21 12:09:25;;;;;;;13.02;6.57;;;537.60;1280.00;;;;;;5093435;28;20059;-77
2021/10/21 12:12:14;;;;;;;7.53;5.50;;;538.10;1254.40;;;;;;5094760;28;20031;-79
2021/10/21 12:14:46;;;;;;;12.00;5.32;;;563.20;1254.40;;;;;;5094408;28;20509;-82